Time;durP1;ratioP1;P1;durP2;ratioP2;P2;SDS_P1;SDS_P2;PMS_P1;PMS_P2;Temp;Humidity;BMP_temperature;BMP_pressure;BME280_temperature;BME280_humidity;BME280_pressure;Samples;Min_cycle;Max_cycle;Signal;HPM_P1;HPM_P2
2022/05/11 00:00:14;;;;;;;0.60;0.60;;;;;;;22.46;38.95;100856.47;689671;28;22389;-69
2022/05/11 00:00:35;;;;;;;0.50;0.50;;;;;;;22.48;39.06;100862.56;685877;28;113459;-69
2022/05/11 00:00:59;;;;;;;0.77;0.77;;;;;;;22.47;39.08;100858.97;688876;28;45170;-71
2022/05/11 00:01:20;;;;;;;0.60;0.60;;;;;;;22.46;39.32;100854.56;687812;28;67533;-70
2022/05/11 00:01:41;;;;;;;0.75;0.75;;;;;;;22.47;39.22;100855.38;688218;28;44260;-69
2022/05/11 00:02:02;;;;;;;0.60;0.60;;;;;;;22.45;39.17;100857.56;690232;28;10160;-70
2022/05/11 00:02:24;;;;;;;0.60;0.60;;;;;;;22.46;39.18;100861.97;689390;28;17914;-70
2022/05/11 00:02:45;;;;;;;0.70;0.70;;;;;;;22.45;38.92;100868.56;688883;28;46401;-70
2022/05/11 00:03:07;;;;;;;0.80;0.80;;;;;;;22.45;39.07;100861.13;689366;28;19588;-69
2022/05/11 00:03:28;;;;;;;0.70;0.70;;;;;;;22.46;39.33;100859.22;689221;28;22415;-70
2022/05/11 00:03:50;;;;;;;0.73;0.73;;;;;;;22.45;39.18;100863.91;689391;28;21548;-69
2022/05/11 00:04:11;;;;;;;0.98;0.98;;;;;;;22.45;39.53;100860.31;688280;28;46331;-69
2022/05/11 00:04:32;;;;;;;1.05;1.05;;;;;;;22.42;39.30;100858.91;689589;28;22555;-71
2022/05/11 00:04:54;;;;;;;0.70;0.70;;;;;;;22.44;39.09;100855.88;688791;28;46095;-70
2022/05/11 00:05:15;;;;;;;0.85;0.85;;;;;;;22.48;39.16;100868.06;691273;28;44385;-70
2022/05/11 00:05:37;;;;;;;1.35;1.27;;;;;;;22.47;39.23;100860.88;690773;28;22408;-70
2022/05/11 00:05:58;;;;;;;1.30;1.20;;;;;;;22.47;39.14;100863.63;691613;28;22451;-70
2022/05/11 00:06:20;;;;;;;0.95;0.95;;;;;;;22.46;39.07;100859.22;691502;28;21562;-70
2022/05/11 00:06:41;;;;;;;0.90;0.90;;;;;;;22.45;39.14;100863.91;689684;28;66669;-69
2022/05/11 00:07:02;;;;;;;0.90;0.90;;;;;;;22.48;39.09;100857.06;691433;28;21405;-70
2022/05/11 00:07:23;;;;;;;0.93;0.93;;;;;;;22.47;39.06;100855.38;689232;28;22257;-70
2022/05/11 00:07:44;;;;;;;1.00;1.00;;;;;;;22.49;39.33;100864.22;689743;28;21554;-70
2022/05/11 00:08:07;;;;;;;0.65;0.65;;;;;;;22.51;39.18;100856.56;689789;28;22407;-70
2022/05/11 00:08:28;;;;;;;1.08;1.08;;;;;;;22.52;38.77;100860.13;687810;28;69431;-70
2022/05/11 00:08:49;;;;;;;0.70;0.70;;;;;;;22.50;38.94;100855.69;689566;28;22393;-69
2022/05/11 00:09:13;;;;;;;0.80;0.80;;;;;;;22.50;38.96;100855.69;689139;28;23455;-70
2022/05/11 00:09:34;;;;;;;1.20;1.20;;;;;;;22.53;39.08;100859.88;686624;28;92138;-69
2022/05/11 00:09:55;;;;;;;1.00;1.00;;;;;;;22.54;38.98;100860.69;688650;28;46470;-70
2022/05/11 00:10:16;;;;;;;0.65;0.65;;;;;;;22.48;39.07;100857.88;688587;28;44924;-70
2022/05/11 00:10:39;;;;;;;1.30;1.20;;;;;;;22.54;39.08;100861.56;688177;28;44324;-70
2022/05/11 00:11:00;;;;;;;0.80;0.80;;;;;;;22.54;39.47;100861.56;688803;28;46315;-71
2022/05/11 00:11:22;;;;;;;0.70;0.70;;;;;;;22.55;39.08;100859.63;688104;28;46960;-70
2022/05/11 00:11:44;;;;;;;0.70;0.70;;;;;;;22.56;38.97;100864.06;691913;28;23817;-70
2022/05/11 00:12:07;;;;;;;0.82;0.82;;;;;;;22.47;39.23;100847.94;691097;28;45156;-70
2022/05/11 00:12:28;;;;;;;0.90;0.90;;;;;;;22.57;39.17;100858.28;689166;28;90352;-70
2022/05/11 00:12:50;;;;;;;0.90;0.90;;;;;;;22.57;38.96;100860.19;692131;28;22411;-69
2022/05/11 00:13:12;;;;;;;0.95;0.95;;;;;;;22.59;39.00;100860.78;691862;28;21312;-70
2022/05/11 00:13:34;;;;;;;1.25;1.25;;;;;;;22.56;39.10;100858.53;690275;28;46284;-69
2022/05/11 00:13:57;;;;;;;1.10;1.10;;;;;;;22.59;38.92;100858.03;688406;28;46838;-71
2022/05/11 00:14:18;;;;;;;0.70;0.70;;;;;;;22.60;38.94;100860.53;687807;28;69250;-70
2022/05/11 00:14:39;;;;;;;0.70;0.70;;;;;;;22.60;39.27;100860.53;689475;28;22465;-70
2022/05/11 00:15:01;;;;;;;0.65;0.65;;;;;;;22.59;39.25;100850.59;689630;28;21488;-70
2022/05/11 00:15:23;;;;;;;0.80;0.80;;;;;;;22.56;39.10;100851.09;688608;28;45418;-70
2022/05/11 00:15:44;;;;;;;0.82;0.82;;;;;;;22.59;39.02;100853.34;691036;28;46358;-70
2022/05/11 00:16:07;;;;;;;0.75;0.75;;;;;;;22.62;39.05;100854.78;692010;28;22405;-70
2022/05/11 00:16:29;;;;;;;3.75;3.65;;;;;;;22.62;38.95;100858.34;689664;28;69790;-71
2022/05/11 00:16:51;;;;;;;5.88;5.68;;;;;;;22.62;38.99;100855.59;691360;28;39962;-70
2022/05/11 00:17:13;;;;;;;3.03;2.92;;;;;;;22.63;38.97;100854.53;691341;28;45946;-69
2022/05/11 00:17:34;;;;;;;3.92;3.78;;;;;;;22.63;39.19;100857.28;690359;28;22201;-69
2022/05/11 00:17:57;;;;;;;29.92;28.63;;;;;;;22.65;39.07;100868.03;689804;28;21546;-71
2022/05/11 00:18:18;;;;;;;49.35;47.20;;;;;;;22.65;39.15;100854.25;686998;28;92493;-70
2022/05/11 00:18:40;;;;;;;67.78;64.72;;;;;;;22.65;39.08;100860.59;689650;28;23473;-70
2022/05/11 00:19:01;;;;;;;80.43;76.93;;;;;;;22.65;38.96;100857.03;689748;28;20891;-70
2022/05/11 00:19:23;;;;;;;199.13;190.80;;;;;;;22.66;39.00;100861.41;688503;28;46322;-70
2022/05/11 00:19:44;;;;;;;478.85;452.33;;;;;;;22.62;39.13;100850.09;688725;28;22246;-70
2022/05/11 00:20:07;;;;;;;269.88;253.32;;;;;;;22.66;38.97;100856.75;689743;28;22399;-70
2022/05/11 00:20:29;;;;;;;8.27;7.97;;;;;;;22.67;39.10;100857.59;687444;28;70259;-69
2022/05/11 00:20:50;;;;;;;6.95;6.70;;;;;;;22.66;39.02;100856.75;688171;28;46348;-70
2022/05/11 00:21:12;;;;;;;7.72;7.43;;;;;;;22.65;39.10;100860.59;689845;28;22395;-70
2022/05/11 00:21:33;;;;;;;2.97;2.88;;;;;;;22.62;39.14;100852.84;688021;28;45263;-69
2022/05/11 00:21:55;;;;;;;2.60;2.50;;;;;;;22.67;39.06;100855.66;689682;28;22452;-69
2022/05/11 00:22:16;;;;;;;3.33;3.22;;;;;;;22.67;39.18;100855.66;688784;28;43792;-68
2022/05/11 00:22:37;;;;;;;3.03;2.92;;;;;;;22.66;39.10;100859.53;689325;28;22483;-70
2022/05/11 00:22:59;;;;;;;2.05;2.00;;;;;;;22.66;39.30;100856.75;692062;28;22109;-69
2022/05/11 00:23:21;;;;;;;1.95;1.85;;;;;;;22.64;39.29;100847.09;690777;28;46333;-70
2022/05/11 00:23:42;;;;;;;2.33;2.22;;;;;;;22.66;39.45;100856.75;691176;28;46300;-70
2022/05/11 00:24:04;;;;;;;1.38;1.38;;;;;;;22.66;39.11;100855.91;692230;28;23344;-71
2022/05/11 00:24:26;;;;;;;1.52;1.50;;;;;;;22.67;39.22;100860.34;690870;28;44400;-70
2022/05/11 00:24:48;;;;;;;1.38;1.38;;;;;;;22.65;39.32;100854.25;690489;28;23445;-71
2022/05/11 00:25:10;;;;;;;2.45;2.35;;;;;;;22.66;39.41;100853.16;688683;28;45435;-70
2022/05/11 00:25:31;;;;;;;2.08;1.98;;;;;;;22.66;39.70;100853.16;690161;28;69245;-70
2022/05/11 00:25:53;;;;;;;2.00;1.90;;;;;;;22.65;39.89;100862.53;691708;28;22727;-71
2022/05/11 00:26:15;;;;;;;2.22;2.13;;;;;;;22.64;39.63;100853.41;691154;28;46315;-70
2022/05/11 00:26:36;;;;;;;2.70;2.60;;;;;;;22.63;39.69;100860.03;687770;28;46387;-70
2022/05/11 00:26:57;;;;;;;1.15;1.15;;;;;;;22.63;39.87;100856.41;689484;28;21420;-70
2022/05/11 00:27:18;;;;;;;1.80;1.70;;;;;;;22.62;39.61;100858.34;689359;28;22401;-70
2022/05/11 00:27:40;;;;;;;1.77;1.67;;;;;;;22.63;39.71;100856.41;689484;28;21523;-70
2022/05/11 00:28:02;;;;;;;1.52;1.50;;;;;;;22.60;40.15;100855.03;688964;28;46334;-70
2022/05/11 00:28:23;;;;;;;1.90;1.90;;;;;;;22.59;40.29;100858.03;689690;28;22237;-70
2022/05/11 00:28:45;;;;;;;1.90;1.80;;;;;;;22.58;40.18;100859.94;689918;28;22319;-69
2022/05/11 00:29:06;;;;;;;1.08;1.08;;;;;;;22.59;40.31;100858.84;690763;28;1873;-69
2022/05/11 00:29:27;;;;;;;1.73;1.73;;;;;;;22.58;40.29;100861.88;690105;28;21542;-70
2022/05/11 00:29:48;;;;;;;2.47;2.38;;;;;;;22.57;40.81;100860.19;689463;28;22369;-70
2022/05/11 00:30:11;;;;;;;2.72;2.63;;;;;;;22.56;40.67;100858.53;690284;28;21531;-70
2022/05/11 00:30:33;;;;;;;3.38;3.28;;;;;;;22.48;40.87;100859.81;688145;28;69474;-69
2022/05/11 00:30:54;;;;;;;4.97;4.78;;;;;;;22.52;41.58;100858.19;689097;28;44374;-70
2022/05/11 00:31:16;;;;;;;6.35;6.15;;;;;;;22.51;41.25;100864.81;690207;28;22446;-70
2022/05/11 00:31:37;;;;;;;5.15;4.95;;;;;;;22.49;41.28;100865.06;688420;28;45401;-70
2022/05/11 00:31:59;;;;;;;5.03;4.82;;;;;;;22.49;41.42;100865.06;689800;28;23411;-70
2022/05/11 00:32:21;;;;;;;1.60;1.52;;;;;;;22.48;41.80;100859.81;688947;28;46082;-70
2022/05/11 00:32:42;;;;;;;0.70;0.70;;;;;;;22.48;41.70;100868.06;689095;28;44421;-69
2022/05/11 00:33:04;;;;;;;0.70;0.70;;;;;;;22.46;41.38;100860.06;689633;28;23881;-70
2022/05/11 00:33:27;;;;;;;0.40;0.40;;;;;;;22.46;41.97;100856.47;689011;28;46847;-69
2022/05/11 00:33:48;;;;;;;0.50;0.50;;;;;;;22.45;42.25;100863.91;688982;28;44421;-71
2022/05/11 00:34:09;;;;;;;0.57;0.57;;;;;;;22.46;41.94;100864.72;689689;28;21311;-70
2022/05/11 00:34:30;;;;;;;0.57;0.57;;;;;;;22.46;41.86;100864.72;689527;28;22381;-71
2022/05/11 00:34:52;;;;;;;0.60;0.60;;;;;;;22.46;42.13;100856.47;689957;28;22418;-70
2022/05/11 00:35:13;;;;;;;0.60;0.60;;;;;;;22.47;42.15;100858.13;689349;28;45264;-69
2022/05/11 00:35:34;;;;;;;0.70;0.70;;;;;;;22.46;42.44;100862.81;690001;28;22430;-70
2022/05/11 00:35:59;;;;;;;0.70;0.70;;;;;;;22.43;42.28;100862.47;689525;28;23145;-71
2022/05/11 00:36:20;;;;;;;1.00;1.00;;;;;;;22.46;42.22;100864.72;686576;28;116096;-69
2022/05/11 00:36:41;;;;;;;1.00;1.00;;;;;;;22.47;42.20;100864.47;688092;28;43504;-70
2022/05/11 00:37:03;;;;;;;0.95;0.95;;;;;;;22.48;42.17;100865.31;690253;28;21323;-70
2022/05/11 00:37:24;;;;;;;0.90;0.90;;;;;;;22.48;42.40;100868.06;689278;28;45278;-71
2022/05/11 00:37:46;;;;;;;0.88;0.88;;;;;;;22.47;42.45;100861.72;690060;28;22254;-70
2022/05/11 00:38:08;;;;;;;1.05;1.05;;;;;;;22.45;42.44;100861.13;689058;28;46327;-69
2022/05/11 00:38:29;;;;;;;1.30;1.30;;;;;;;22.47;42.36;100863.63;688976;28;46590;-70
2022/05/11 00:38:51;;;;;;;0.82;0.82;;;;;;;22.47;42.59;100869.97;690164;28;22397;-71
2022/05/11 00:39:13;;;;;;;0.68;0.68;;;;;;;22.46;43.07;100864.72;689035;28;46334;-70
2022/05/11 00:39:34;;;;;;;0.90;0.90;;;;;;;22.44;42.97;100861.41;688717;28;46416;-70
2022/05/11 00:39:56;;;;;;;0.90;0.90;;;;;;;22.44;43.27;100861.41;690322;28;20782;-70
2022/05/11 00:40:18;;;;;;;0.85;0.85;;;;;;;22.42;43.48;100866.31;691273;28;46441;-71
2022/05/11 00:40:41;;;;;;;0.82;0.82;;;;;;;22.40;43.42;100860.22;691366;28;47190;-70
2022/05/11 00:41:02;;;;;;;0.80;0.80;;;;;;;22.40;43.22;100866.56;690687;28;67488;-70
2022/05/11 00:41:23;;;;;;;0.75;0.75;;;;;;;22.34;43.31;100853.00;691711;28;22405;-71
2022/05/11 00:41:44;;;;;;;0.77;0.77;;;;;;;22.38;43.44;100867.91;692677;28;21536;-70
2022/05/11 00:42:07;;;;;;;0.95;0.95;;;;;;;22.35;43.29;100861.00;691915;28;22502;-70
2022/05/11 00:42:29;;;;;;;0.80;0.80;;;;;;;22.34;43.39;100853.00;691353;28;43047;-70
2022/05/11 00:42:50;;;;;;;0.70;0.70;;;;;;;22.34;44.02;100858.50;690874;28;67294;-70
2022/05/11 00:43:16;;;;;;;0.68;0.68;;;;;;;22.32;43.70;100864.28;692433;28;21356;-70
2022/05/11 00:43:43;;;;;;;1.58;1.48;;;;;;;22.27;43.94;100853.13;691744;28;36908;-70
2022/05/11 00:44:06;;;;;;;0.90;0.90;;;;;;;22.29;44.26;100857.31;689006;28;130367;-70
2022/05/11 00:44:27;;;;;;;0.80;0.80;;;;;;;22.29;44.37;100862.00;690861;28;67471;-70
2022/05/11 00:44:48;;;;;;;0.50;0.50;;;;;;;22.28;44.28;100858.38;692553;28;24305;-70
2022/05/11 00:45:10;;;;;;;0.82;0.82;;;;;;;22.28;44.41;100857.56;692459;28;21518;-70
2022/05/11 00:45:32;;;;;;;0.80;0.80;;;;;;;22.26;44.43;100857.81;691693;28;46346;-70
2022/05/11 00:45:53;;;;;;;0.82;0.82;;;;;;;22.25;44.70;100858.06;691488;28;45059;-69
2022/05/11 00:46:19;;;;;;;1.27;1.20;;;;;;;22.24;44.51;100861.88;692358;28;22387;-70
2022/05/11 00:46:44;;;;;;;1.05;1.05;;;;;;;22.23;44.18;100855.56;687790;28;138100;-70
2022/05/11 00:47:10;;;;;;;1.00;1.00;;;;;;;22.24;44.43;100864.63;688993;28;114887;-70
2022/05/11 00:47:33;;;;;;;0.90;0.90;;;;;;;22.22;44.32;100859.38;688383;28;138124;-69
2022/05/11 00:47:57;;;;;;;1.00;1.00;;;;;;;22.24;44.20;100862.75;690029;28;92347;-69
2022/05/11 00:49:48;;;;;;;1.60;1.50;;;;;;;22.21;44.58;100860.50;685298;28;137657;-70
2022/05/11 00:50:12;;;;;;;1.13;1.13;;;;;;;22.21;44.65;100856.88;688367;28;69338;-70
2022/05/11 00:50:35;;;;;;;1.20;1.20;;;;;;;22.20;44.39;100858.81;687363;28;93216;-69
2022/05/11 00:50:56;;;;;;;1.15;1.15;;;;;;;22.20;44.29;100858.81;686944;28;90202;-70
2022/05/11 00:51:17;;;;;;;1.20;1.20;;;;;;;22.20;44.50;100856.06;689832;28;21545;-70
2022/05/11 00:51:41;;;;;;;1.13;1.13;;;;;;;22.22;44.41;100861.31;688943;28;23515;-70
2022/05/11 00:52:07;;;;;;;1.20;1.20;;;;;;;22.22;44.38;100864.88;687483;28;92251;-70
2022/05/11 00:52:36;;;;;;;1.30;1.30;;;;;;;22.19;44.84;100854.38;685494;28;137376;-70
2022/05/11 00:52:59;;;;;;;1.45;1.45;;;;;;;22.16;44.35;100849.38;685745;28;136427;-69
2022/05/11 00:53:21;;;;;;;1.35;1.33;;;;;;;22.22;44.62;100861.31;688014;28;69488;-70
2022/05/11 00:53:45;;;;;;;1.20;1.20;;;;;;;22.22;44.78;100859.38;689103;28;44183;-70
2022/05/11 00:54:07;;;;;;;1.10;1.10;;;;;;;22.18;45.08;100861.00;686737;28;116056;-70
2022/05/11 00:54:32;;;;;;;1.23;1.23;;;;;;;22.18;45.21;100862.91;688493;28;69640;-71
2022/05/11 00:54:57;;;;;;;1.73;1.63;;;;;;;22.18;45.13;100857.38;687613;28;91847;-69
2022/05/11 00:55:23;;;;;;;1.20;1.20;;;;;;;22.13;45.10;100864.50;686641;28;116129;-70
2022/05/11 00:55:48;;;;;;;1.00;1.00;;;;;;;22.10;45.20;100862.25;685738;28;137478;-70
2022/05/11 00:56:09;;;;;;;0.80;0.80;;;;;;;22.12;45.34;100865.56;685953;28;138270;-70
2022/05/11 00:56:32;;;;;;;0.77;0.77;;;;;;;22.11;45.62;100865.81;688470;28;46397;-70
2022/05/11 00:56:56;;;;;;;0.82;0.82;;;;;;;22.09;45.19;100868.00;687792;28;69754;-69
2022/05/11 00:57:20;;;;;;;0.93;0.93;;;;;;;22.09;45.67;100868.00;688384;28;69267;-70
2022/05/11 00:57:47;;;;;;;1.30;1.30;;;;;;;22.08;45.76;100874.56;687739;28;90374;-70
2022/05/11 00:58:12;;;;;;;1.40;1.38;;;;;;;22.04;46.05;100868.75;685680;28;136320;-70
2022/05/11 00:58:36;;;;;;;1.30;1.30;;;;;;;22.04;46.10;100876.19;686491;28;115171;-69
2022/05/11 00:59:02;;;;;;;1.40;1.40;;;;;;;22.04;45.95;100878.94;687541;28;91111;-70
2022/05/11 00:59:27;;;;;;;1.20;1.20;;;;;;;22.02;45.76;100881.06;686437;28;115282;-70
2022/05/11 00:59:50;;;;;;;1.58;1.58;;;;;;;22.04;45.86;100887.19;685897;28;115903;-69
2022/05/11 01:00:12;;;;;;;0.93;0.93;;;;;;;22.02;45.73;100883.81;687617;28;92272;-70
2022/05/11 01:00:33;;;;;;;1.55;1.45;;;;;;;22.05;45.75;100884.19;688694;28;46478;-69
2022/05/11 01:00:55;;;;;;;1.33;1.30;;;;;;;22.05;45.84;100886.94;689198;28;46424;-69
2022/05/11 01:01:17;;;;;;;1.60;1.50;;;;;;;22.05;45.75;100889.69;689124;28;45263;-70
2022/05/11 01:01:40;;;;;;;1.55;1.45;;;;;;;22.05;45.95;100895.19;688643;28;22385;-70
2022/05/11 01:02:04;;;;;;;0.80;0.80;;;;;;;22.05;45.87;100900.69;688591;28;69417;-70
2022/05/11 01:02:25;;;;;;;0.90;0.90;;;;;;;;;;689732;28;90454;-70
2022/05/11 01:02:54;;;;;;;0.82;0.82;;;;;;;22.01;46.01;100896.75;691947;28;23307;-70
2022/05/11 01:03:18;;;;;;;1.00;1.00;;;;;;;22.05;45.90;100900.69;688197;28;136243;-70
2022/05/11 01:03:54;;;;;;;1.10;1.10;;;;;;;22.07;46.00;100894.91;689600;28;92259;-69
2022/05/11 01:04:18;;;;;;;1.10;1.10;;;;;;;22.08;45.82;100896.56;687385;28;137643;-68
2022/05/11 01:04:41;;;;;;;1.05;1.05;;;;;;;22.09;45.93;100895.50;687356;28;93049;-69
2022/05/11 01:05:04;;;;;;;1.23;1.23;;;;;;;22.09;46.03;100898.25;688902;28;45225;-70
2022/05/11 01:05:27;;;;;;;1.40;1.30;;;;;;;22.07;46.30;100892.16;687117;28;91545;-69
2022/05/11 01:05:48;;;;;;;1.50;1.40;;;;;;;22.09;45.76;100895.50;688937;28;44110;-69
2022/05/11 01:06:10;;;;;;;1.55;1.45;;;;;;;22.07;46.15;100889.41;688690;28;45069;-70
2022/05/11 01:06:32;;;;;;;1.23;1.23;;;;;;;22.09;45.86;100895.50;688063;28;44351;-69
2022/05/11 01:06:57;;;;;;;1.20;1.20;;;;;;;22.08;46.16;100896.56;689607;28;22429;-70
2022/05/11 01:07:18;;;;;;;1.20;1.20;;;;;;;22.06;46.25;100887.75;685489;28;138353;-69
2022/05/11 01:07:39;;;;;;;0.95;0.95;;;;;;;22.08;46.07;100891.06;689758;28;23523;-70
2022/05/11 01:08:01;;;;;;;0.82;0.82;;;;;;;22.07;46.22;100892.16;690095;28;23569;-70
2022/05/11 01:08:23;;;;;;;2.85;2.75;;;;;;;22.05;46.32;100892.44;688226;28;69381;-70
2022/05/11 01:08:44;;;;;;;3.30;3.20;;;;;;;22.05;46.37;100891.56;689080;28;46349;-69
2022/05/11 01:09:06;;;;;;;2.13;2.03;;;;;;;22.03;46.22;100894.56;689754;28;21312;-69
2022/05/11 01:09:28;;;;;;;2.00;1.90;;;;;;;22.03;46.42;100894.56;689345;28;21013;-68
2022/05/11 01:09:49;;;;;;;2.33;2.22;;;;;;;22.03;46.36;100896.50;692870;28;1821;-69
2022/05/11 01:10:11;;;;;;;1.90;1.80;;;;;;;21.99;46.50;100887.06;692503;28;22420;-70
2022/05/11 01:10:32;;;;;;;1.88;1.77;;;;;;;22.02;46.68;100892.06;691554;28;44371;-69
2022/05/11 01:10:53;;;;;;;44.33;42.38;;;;;;;22.01;46.74;100890.44;691779;28;22456;-69
2022/05/11 01:11:15;;;;;;;70.78;67.68;;;;;;;22.00;46.50;100900.56;692517;28;22896;-69
2022/05/11 01:11:38;;;;;;;118.25;113.13;;;;;;;22.01;46.46;100895.94;690404;28;46227;-70
2022/05/11 01:12:01;;;;;;;329.17;313.33;;;;;;;21.99;46.44;100889.81;690765;28;69433;-71
2022/05/11 01:12:25;;;;;;;219.75;209.20;;;;;;;21.99;46.76;100896.19;690633;28;67470;-69
2022/05/11 01:12:50;;;;;;;66.43;63.38;;;;;;;21.96;46.68;100888.44;688867;28;90706;-70
2022/05/11 01:13:13;;;;;;;41.13;39.33;;;;;;;21.94;46.95;100896.94;686227;28;115428;-69
2022/05/11 01:13:36;;;;;;;50.35;48.10;;;;;;;21.92;47.03;100893.56;688286;28;69439;-70
2022/05/11 01:13:58;;;;;;;13.35;12.80;;;;;;;21.93;46.94;100894.44;688373;28;67233;-70
2022/05/11 01:14:21;;;;;;;1.77;1.67;;;;;;;21.96;46.84;100904.94;689102;28;46718;-70
2022/05/11 01:14:46;;;;;;;1.83;1.73;;;;;;;21.96;46.78;100897.50;688472;28;70455;-69
2022/05/11 01:15:09;;;;;;;2.10;2.00;;;;;;;21.96;46.86;100899.44;687453;28;90414;-70
2022/05/11 01:15:33;;;;;;;1.45;1.42;;;;;;;21.94;46.74;100896.06;688090;28;69386;-68
2022/05/11 01:15:54;;;;;;;1.90;1.80;;;;;;;21.96;46.83;100903.00;686839;28;113515;-69
2022/05/11 01:16:16;;;;;;;1.55;1.50;;;;;;;21.96;46.84;100908.50;689832;28;22433;-70
2022/05/11 01:16:37;;;;;;;2.70;2.60;;;;;;;21.96;46.92;100902.19;687910;28;46138;-70
2022/05/11 01:17:00;;;;;;;1.35;1.35;;;;;;;21.95;46.75;100903.25;690129;28;21551;-70
2022/05/11 01:17:24;;;;;;;0.85;0.85;;;;;;;21.92;47.03;100899.06;688068;28;69492;-70
2022/05/11 01:17:45;;;;;;;0.88;0.88;;;;;;;21.94;47.13;100901.56;687942;28;71788;-70
2022/05/11 01:18:09;;;;;;;0.80;0.80;;;;;;;21.91;47.20;100902.91;690116;28;23522;-70
2022/05/11 01:18:30;;;;;;;0.73;0.73;;;;;;;21.91;47.04;100897.44;686698;28;93096;-69
2022/05/11 01:18:53;;;;;;;0.80;0.80;;;;;;;21.91;47.05;100902.06;689888;28;22387;-70
2022/05/11 01:19:20;;;;;;;0.77;0.77;;;;;;;21.90;47.23;100900.41;688369;28;69401;-69
2022/05/11 01:19:44;;;;;;;0.75;0.75;;;;;;;21.88;47.29;100900.66;685373;28;137643;-70
2022/05/11 01:20:07;;;;;;;0.57;0.57;;;;;;;21.88;47.23;100897.91;687168;28;92309;-69
2022/05/11 01:20:33;;;;;;;0.70;0.70;;;;;;;21.89;47.08;100896.81;688216;28;69437;-70
2022/05/11 01:20:54;;;;;;;0.50;0.50;;;;;;;21.90;47.00;100900.41;685402;28;138133;-69
2022/05/11 01:21:15;;;;;;;0.55;0.55;;;;;;;21.88;47.23;100897.06;688789;28;46227;-69
2022/05/11 01:21:39;;;;;;;0.60;0.60;;;;;;;21.87;47.35;100901.75;688762;28;21506;-69
2022/05/11 01:22:07;;;;;;;0.50;0.50;;;;;;;21.86;47.27;100893.75;687441;28;90140;-70
2022/05/11 01:22:34;;;;;;;0.80;0.80;;;;;;;21.85;47.42;100895.66;685904;28;137928;-70
2022/05/11 01:23:02;;;;;;;0.52;0.52;;;;;;;21.83;47.51;100895.06;685688;28;137661;-70
2022/05/11 01:23:32;;;;;;;0.75;0.75;;;;;;;21.82;47.69;100898.06;685442;28;137912;-70
2022/05/11 01:23:57;;;;;;;0.55;0.55;;;;;;;21.81;47.53;100893.66;685946;28;138270;-70
2022/05/11 01:24:27;;;;;;;0.60;0.60;;;;;;;21.78;47.76;100892.22;685426;28;139140;-70
2022/05/11 01:24:50;;;;;;;0.60;0.60;;;;;;;21.74;47.78;100889.16;685429;28;138136;-70
2022/05/11 01:25:12;;;;;;;0.70;0.70;;;;;;;21.74;47.72;100891.03;688417;28;67280;-70
2022/05/11 01:25:33;;;;;;;0.63;0.63;;;;;;;21.74;47.86;100893.78;691391;28;44174;-70
2022/05/11 01:25:55;;;;;;;0.63;0.63;;;;;;;21.74;47.90;100894.66;689734;28;22426;-69
2022/05/11 01:26:17;;;;;;;0.75;0.75;;;;;;;21.72;47.86;100890.47;688006;28;45265;-69
2022/05/11 01:26:38;;;;;;;0.70;0.70;;;;;;;21.70;47.94;100895.38;687929;28;45279;-70
2022/05/11 01:27:20;;;;;;;0.57;0.57;;;;;;;21.67;47.85;100882.97;689728;28;23451;-69
2022/05/11 01:27:44;;;;;;;0.70;0.70;;;;;;;21.69;48.05;100883.56;685507;28;137745;-69
2022/05/11 01:28:10;;;;;;;1.10;1.10;;;;;;;21.68;48.08;100892.06;685725;28;90771;-69
2022/05/11 01:28:31;;;;;;;0.80;0.80;;;;;;;21.60;47.95;100883.13;685770;28;136434;-69
2022/05/11 01:28:54;;;;;;;0.60;0.60;;;;;;;21.64;48.17;100888.97;689274;28;44384;-69
2022/05/11 01:29:15;;;;;;;0.70;0.70;;;;;;;21.64;48.35;100890.88;688211;28;69450;-69
2022/05/11 01:29:37;;;;;;;0.90;0.90;;;;;;;21.63;48.14;100886.47;689094;28;21563;-69
2022/05/11 01:30:02;;;;;;;0.82;0.82;;;;;;;21.61;48.20;100883.94;689086;28;46378;-69
2022/05/11 01:30:25;;;;;;;0.68;0.68;;;;;;;21.58;48.38;100876.22;688312;28;59264;-69
2022/05/11 01:30:49;;;;;;;0.68;0.68;;;;;;;21.58;48.59;100885.31;689859;28;22405;-69
2022/05/11 01:31:11;;;;;;;0.60;0.60;;;;;;;21.57;48.49;100888.28;687556;28;92366;-69
2022/05/11 01:31:32;;;;;;;0.60;0.60;;;;;;;21.57;48.33;100885.56;687987;28;46324;-69
2022/05/11 01:31:53;;;;;;;0.47;0.47;;;;;;;21.57;48.42;100880.88;689728;28;22401;-69
2022/05/11 01:32:15;;;;;;;0.32;0.32;;;;;;;21.51;48.40;100873.63;692414;28;21526;-69
2022/05/11 01:32:38;;;;;;;0.50;0.50;;;;;;;21.53;48.75;100868.69;692527;28;23531;-69
2022/05/11 01:32:59;;;;;;;0.50;0.50;;;;;;;21.52;48.38;100864.31;690716;28;69306;-69
2022/05/11 01:33:22;;;;;;;0.63;0.63;;;;;;;21.49;48.55;100863.94;692396;28;23417;-69
2022/05/11 01:33:46;;;;;;;0.50;0.50;;;;;;;21.51;48.47;100870.88;689476;28;93202;-69
2022/05/11 01:34:08;;;;;;;0.50;0.50;;;;;;;21.52;48.33;100864.31;689762;28;69444;-69
2022/05/11 01:34:29;;;;;;;0.50;0.50;;;;;;;21.54;48.33;100869.56;689018;28;46106;-69
2022/05/11 01:34:53;;;;;;;0.60;0.60;;;;;;;21.55;48.42;100862.97;690053;28;21546;-69
2022/05/11 01:35:24;;;;;;;0.50;0.50;;;;;;;21.55;48.42;100863.81;686771;28;114085;-69
2022/05/11 01:35:52;;;;;;;0.57;0.57;;;;;;;21.51;48.19;100848.06;685836;28;137845;-69
2022/05/11 01:36:20;;;;;;;0.50;0.50;;;;;;;21.56;48.35;100857.22;685866;28;137786;-69
2022/05/11 01:36:41;;;;;;;0.50;0.50;;;;;;;21.52;48.30;100850.56;684353;28;157848;-69
2022/05/11 01:37:03;;;;;;;0.50;0.50;;;;;;;21.60;47.79;100858.41;689840;28;23535;-69
2022/05/11 01:37:25;;;;;;;0.50;0.50;;;;;;;21.62;47.97;100860.91;688920;28;45246;-69
2022/05/11 01:37:59;;;;;;;0.47;0.47;;;;;;;21.60;47.86;100855.66;688861;28;45273;-69
2022/05/11 01:38:28;;;;;;;0.40;0.40;;;;;;;21.64;47.87;100861.47;685869;28;137690;-69
2022/05/11 01:38:52;;;;;;;0.40;0.40;;;;;;;21.63;47.71;100851.59;685845;28;137950;-69
2022/05/11 01:39:13;;;;;;;0.53;0.53;;;;;;;21.66;47.86;100855.72;686578;28;90670;-69
2022/05/11 01:39:35;;;;;;;0.70;0.70;;;;;;;21.64;48.10;100853.22;689307;28;23477;-69
2022/05/11 01:39:56;;;;;;;0.50;0.50;;;;;;;21.67;47.74;100851.91;689822;28;27105;-69
2022/05/11 01:40:17;;;;;;;0.43;0.43;;;;;;;21.69;47.81;100860.72;689743;28;23480;-69
2022/05/11 01:40:39;;;;;;;0.40;0.40;;;;;;;21.68;48.08;100857.16;689993;28;21538;-69
2022/05/11 01:41:00;;;;;;;0.50;0.50;;;;;;;21.66;47.78;100850.22;688600;28;45304;-69
2022/05/11 01:41:25;;;;;;;0.60;0.60;;;;;;;21.70;47.73;100862.41;688920;28;21559;-69
2022/05/11 01:41:51;;;;;;;0.43;0.43;;;;;;;21.67;47.96;100849.97;687433;28;92334;-69
2022/05/11 01:42:12;;;;;;;0.40;0.40;;;;;;;21.68;48.13;100857.16;684815;28;161182;-69
2022/05/11 01:42:33;;;;;;;0.40;0.40;;;;;;;21.68;47.99;100850.84;689008;28;46332;-69
2022/05/11 01:42:54;;;;;;;0.40;0.40;;;;;;;21.65;48.24;100851.34;689465;28;21325;-69
2022/05/11 01:43:17;;;;;;;0.45;0.45;;;;;;;21.68;47.82;100850.84;689666;28;23446;-69
2022/05/11 01:43:40;;;;;;;0.50;0.50;;;;;;;21.69;47.82;100847.00;687889;28;69478;-69
2022/05/11 01:44:02;;;;;;;0.40;0.40;;;;;;;21.68;47.72;100839.84;688835;28;46385;-69
2022/05/11 01:44:24;;;;;;;0.40;0.40;;;;;;;21.71;47.65;100851.16;691348;28;46591;-69
2022/05/11 01:44:45;;;;;;;0.40;0.40;;;;;;;21.72;47.19;100839.09;691673;28;44405;-69
2022/05/11 01:45:07;;;;;;;0.30;0.30;;;;;;;21.75;47.14;100843.25;692117;28;22554;-69
2022/05/11 01:45:28;;;;;;;0.40;0.40;;;;;;;21.78;47.12;100842.75;691242;28;46262;-69
2022/05/11 01:45:49;;;;;;;0.60;0.60;;;;;;;21.80;46.94;100843.31;692437;28;21555;-69
2022/05/11 01:46:11;;;;;;;0.40;0.40;;;;;;;21.77;47.26;100841.06;692309;28;22411;-69
2022/05/11 01:46:33;;;;;;;0.50;0.50;;;;;;;21.80;47.55;100840.56;688735;28;35555;-69
2022/05/11 01:46:57;;;;;;;0.38;0.38;;;;;;;21.81;47.06;100841.44;688916;28;46446;-69
2022/05/11 01:47:18;;;;;;;0.40;0.40;;;;;;;21.81;47.37;100838.69;688279;28;67495;-69
2022/05/11 01:47:40;;;;;;;0.40;0.40;;;;;;;21.85;46.93;100848.94;689628;28;22400;-69
2022/05/11 01:48:01;;;;;;;0.40;0.40;;;;;;;21.78;47.09;100832.56;688947;28;46384;-69